createdAt,value
2023-02-07T00:00:42.758Z,5.50
2023-02-07T00:03:45.376Z,5.82
2023-02-07T00:06:46.883Z,6.03
2023-02-07T00:09:48.371Z,5.40
2023-02-07T00:12:50.195Z,5.78
2023-02-07T00:15:51.699Z,5.97
2023-02-07T00:18:55.556Z,6.05
2023-02-07T00:21:57.048Z,5.38
2023-02-07T00:24:58.537Z,5.57
2023-02-07T00:28:00.203Z,6.10
2023-02-07T00:31:20.846Z,5.95
2023-02-07T00:34:22.400Z,5.05
2023-02-07T00:37:23.881Z,5.10
2023-02-07T00:40:25.412Z,4.55
2023-02-07T00:43:29.873Z,5.28
2023-02-07T00:46:32.212Z,5.28
2023-02-07T00:49:33.776Z,5.45
2023-02-07T00:52:35.279Z,5.32
2023-02-07T00:55:37.021Z,4.95
2023-02-07T00:58:38.620Z,6.82
2023-02-07T01:01:41.281Z,5.43
2023-02-07T01:04:42.894Z,6.15
2023-02-07T01:07:44.439Z,5.60
2023-02-07T01:10:46.305Z,6.20
2023-02-07T01:13:47.830Z,6.43
2023-02-07T01:16:50.046Z,6.60
2023-02-07T01:19:56.668Z,6.57
2023-02-07T01:22:58.189Z,6.80
2023-02-07T01:25:59.654Z,7.55
2023-02-07T01:29:02.467Z,6.90
2023-02-07T01:32:04.138Z,7.07
2023-02-07T01:35:05.944Z,7.05
2023-02-07T01:38:07.997Z,7.38
2023-02-07T01:41:10.602Z,7.53
2023-02-07T01:44:24.442Z,7.40
2023-02-07T01:47:26.943Z,7.63
2023-02-07T01:50:29.294Z,6.90
2023-02-07T01:53:31.417Z,7.05
2023-02-07T01:56:36.136Z,7.05
2023-02-07T01:59:40.896Z,8.10
2023-02-07T02:02:43.002Z,7.20
2023-02-07T02:05:46.359Z,7.68
2023-02-07T02:08:49.841Z,7.38
2023-02-07T02:12:22.586Z,6.90
2023-02-07T02:15:33.678Z,7.95
2023-02-07T02:19:29.531Z,7.38
2023-02-07T02:23:05.684Z,7.38
2023-02-07T02:26:37.785Z,6.95
2023-02-07T02:30:06.993Z,7.35
2023-02-07T02:33:09.096Z,7.78
2023-02-07T02:36:25.725Z,7.18
2023-02-07T02:39:40.867Z,8.30
2023-02-07T02:42:54.054Z,7.57
2023-02-07T02:46:01.689Z,8.05
2023-02-07T02:49:06.476Z,8.00
2023-02-07T02:52:08.052Z,7.70
2023-02-07T02:55:09.643Z,7.13
2023-02-07T02:58:20.134Z,7.35
2023-02-07T03:01:35.987Z,7.18
2023-02-07T03:04:54.885Z,7.75
2023-02-07T03:08:25.506Z,8.27
2023-02-07T03:11:32.289Z,7.32
2023-02-07T03:14:45.523Z,7.60
2023-02-07T03:18:08.016Z,8.35
2023-02-07T03:21:21.880Z,8.00
2023-02-07T03:24:29.013Z,7.80
2023-02-07T03:27:32.226Z,8.27
2023-02-07T03:30:36.047Z,8.43
2023-02-07T03:33:38.348Z,8.65
2023-02-07T03:36:50.514Z,9.15
2023-02-07T03:39:52.503Z,8.60
2023-02-07T03:43:04.660Z,8.45
2023-02-07T03:46:09.492Z,9.05
2023-02-07T03:49:11.579Z,8.43
2023-02-07T03:52:13.042Z,8.55
2023-02-07T03:55:14.512Z,8.68
2023-02-07T03:58:15.961Z,8.80
2023-02-07T04:01:17.663Z,9.07
2023-02-07T04:04:19.317Z,8.98
2023-02-07T04:07:20.858Z,8.98
2023-02-07T04:10:22.558Z,8.88
2023-02-07T04:13:24.047Z,9.25
2023-02-07T04:16:25.965Z,8.80
2023-02-07T04:19:27.462Z,10.45
2023-02-07T04:22:29.599Z,8.75
2023-02-07T04:25:31.199Z,9.10
2023-02-07T04:28:32.969Z,10.50
2023-02-07T04:31:34.649Z,10.00
2023-02-07T04:34:36.080Z,10.88
2023-02-07T04:37:37.617Z,9.80
2023-02-07T04:40:39.327Z,11.32
2023-02-07T04:43:40.811Z,10.27
2023-02-07T04:46:42.294Z,11.45
2023-02-07T04:49:43.882Z,10.70
2023-02-07T04:52:45.292Z,10.98
2023-02-07T04:55:51.159Z,11.15
2023-02-07T04:58:52.875Z,11.77
2023-02-07T05:01:54.385Z,11.00
2023-02-07T05:04:55.881Z,11.40
2023-02-07T05:07:57.455Z,11.40
2023-02-07T05:10:59.065Z,11.15
2023-02-07T05:14:00.574Z,11.32
2023-02-07T05:17:02.063Z,11.32
2023-02-07T05:20:03.638Z,12.27
2023-02-07T05:23:05.160Z,11.43
2023-02-07T05:26:06.729Z,10.07
2023-02-07T05:29:08.511Z,10.55
2023-02-07T05:32:32.809Z,11.90
2023-02-07T05:35:40.338Z,11.70
2023-02-07T05:38:42.008Z,11.68
2023-02-07T05:41:43.460Z,10.05
2023-02-07T05:44:45.366Z,11.20
2023-02-07T05:47:47.249Z,10.55
2023-02-07T05:50:48.793Z,11.90
2023-02-07T05:53:50.290Z,10.70
2023-02-07T05:56:51.835Z,11.85
2023-02-07T05:59:53.265Z,11.45
2023-02-07T06:02:54.811Z,12.65
2023-02-07T06:05:56.272Z,11.60
2023-02-07T06:08:57.791Z,12.10
2023-02-07T06:11:59.291Z,11.25
2023-02-07T06:15:00.905Z,12.45
2023-02-07T06:18:02.474Z,11.10
2023-02-07T06:21:04.500Z,11.10
2023-02-07T06:24:06.876Z,10.93
2023-02-07T06:27:08.397Z,11.23
2023-02-07T06:30:12.448Z,12.52
2023-02-07T06:36:15.322Z,12.05
2023-02-07T06:39:16.775Z,12.13
2023-02-07T06:42:18.295Z,12.02
2023-02-07T06:45:20.026Z,11.60
2023-02-07T06:48:21.833Z,12.20
2023-02-07T06:51:23.534Z,12.40
2023-02-07T06:54:25.116Z,11.98
2023-02-07T06:57:26.602Z,13.43
2023-02-07T07:00:29.791Z,12.38
2023-02-07T07:03:31.428Z,12.02
2023-02-07T07:06:33.534Z,12.85
2023-02-07T07:09:35.174Z,15.40
2023-02-07T07:12:36.801Z,14.73
2023-02-07T07:15:38.462Z,13.02
2023-02-07T07:18:40.270Z,13.07
2023-02-07T07:21:41.796Z,12.07
2023-02-07T07:24:43.691Z,13.23
2023-02-07T07:27:45.409Z,13.75
2023-02-07T07:30:47.082Z,12.90
2023-02-07T07:33:48.612Z,12.63
2023-02-07T07:36:50.168Z,12.88
2023-02-07T07:39:51.686Z,13.43
2023-02-07T07:42:53.234Z,13.38
2023-02-07T07:46:04.261Z,12.13
2023-02-07T07:49:05.782Z,13.57
2023-02-07T07:52:07.613Z,13.65
2023-02-07T07:55:10.153Z,13.60
2023-02-07T07:58:11.680Z,13.05
2023-02-07T08:01:13.212Z,12.32
2023-02-07T08:04:14.689Z,13.63
2023-02-07T08:07:16.197Z,12.13
2023-02-07T08:10:17.661Z,13.00
2023-02-07T08:13:20.106Z,13.18
2023-02-07T08:16:21.636Z,11.32
2023-02-07T08:19:24.277Z,11.82
2023-02-07T08:22:25.828Z,11.40
2023-02-07T08:25:27.428Z,11.00
2023-02-07T08:28:29.519Z,10.80
2023-02-07T08:31:31.228Z,11.10
2023-02-07T08:34:37.400Z,12.13
2023-02-07T08:37:39.271Z,11.27
2023-02-07T08:40:41.122Z,11.43
2023-02-07T08:43:42.829Z,11.73
2023-02-07T08:46:44.270Z,12.80
2023-02-07T08:49:45.828Z,10.57
2023-02-07T08:52:47.290Z,10.48
2023-02-07T08:55:48.872Z,10.98
2023-02-07T08:58:50.302Z,10.80
2023-02-07T09:01:51.976Z,10.07
2023-02-07T09:04:53.670Z,10.70
2023-02-07T09:07:55.102Z,11.52
2023-02-07T09:10:56.654Z,9.93
2023-02-07T09:13:58.127Z,10.52
2023-02-07T09:16:59.697Z,11.43
2023-02-07T09:20:01.369Z,11.30
2023-02-07T09:23:17.839Z,10.00
2023-02-07T09:26:22.087Z,10.63
2023-02-07T09:32:25.653Z,10.63
2023-02-07T09:35:27.236Z,10.65
2023-02-07T09:38:29.205Z,10.82
2023-02-07T09:41:41.348Z,10.80
2023-02-07T09:45:03.546Z,11.02
2023-02-07T09:48:15.577Z,11.15
2023-02-07T09:51:20.898Z,10.73
2023-02-07T09:54:33.069Z,9.88
2023-02-07T09:57:44.416Z,10.00
2023-02-07T10:00:53.839Z,10.32
2023-02-07T10:04:07.537Z,9.90
2023-02-07T10:07:13.191Z,9.77
2023-02-07T10:10:24.254Z,11.07
2023-02-07T10:13:31.557Z,10.48
2023-02-07T10:16:44.536Z,11.52
2023-02-07T10:19:58.196Z,10.55
2023-02-07T10:23:05.961Z,10.82
2023-02-07T10:26:10.437Z,11.43
2023-02-07T10:30:05.001Z,10.90
2023-02-07T10:33:14.426Z,10.27
2023-02-07T10:36:17.311Z,9.75
2023-02-07T10:39:21.784Z,10.02
2023-02-07T10:42:24.398Z,9.60
2023-02-07T10:45:25.866Z,10.07
2023-02-07T10:48:28.363Z,10.27
2023-02-07T10:51:29.789Z,10.68
2023-02-07T10:54:51.383Z,9.88
2023-02-07T10:58:01.455Z,10.57
2023-02-07T11:01:06.117Z,10.80
2023-02-07T11:04:23.743Z,10.52
2023-02-07T11:07:26.408Z,9.52
2023-02-07T11:10:48.818Z,9.90
2023-02-07T11:13:52.108Z,10.00
2023-02-07T11:16:59.167Z,10.00
2023-02-07T11:20:16.686Z,10.60
2023-02-07T11:23:18.294Z,9.45
2023-02-07T11:26:21.765Z,10.60
2023-02-07T11:29:25.822Z,10.77
2023-02-07T11:32:28.740Z,11.07
2023-02-07T11:35:30.301Z,10.45
2023-02-07T11:38:36.136Z,10.65
2023-02-07T11:41:38.721Z,10.20
2023-02-07T11:44:45.837Z,10.65
2023-02-07T11:47:49.569Z,10.48
2023-02-07T11:50:56.617Z,10.57
2023-02-07T11:54:02.224Z,10.73
2023-02-07T11:57:13.109Z,9.85
2023-02-07T12:00:23.536Z,11.15
2023-02-07T12:03:28.254Z,10.43
2023-02-07T12:06:43.962Z,10.88
2023-02-07T12:10:05.826Z,11.55
2023-02-07T12:13:12.115Z,10.90
2023-02-07T12:16:21.380Z,10.27
2023-02-07T12:19:29.909Z,9.70
2023-02-07T12:23:21.512Z,10.80
2023-02-07T12:26:47.613Z,9.50
2023-02-07T12:30:04.470Z,10.10
2023-02-07T12:33:31.645Z,9.95
2023-02-07T12:36:53.088Z,9.45
2023-02-07T12:40:12.521Z,10.98
2023-02-07T12:43:38.592Z,9.15
2023-02-07T12:46:58.033Z,9.65
2023-02-07T12:50:08.367Z,11.65
2023-02-07T12:53:36.840Z,10.18
2023-02-07T12:57:03.194Z,10.27
2023-02-07T13:00:28.715Z,9.85
2023-02-07T13:04:07.320Z,10.57
2023-02-07T13:07:48.453Z,9.60
2023-02-07T13:10:58.979Z,10.68
2023-02-07T13:14:30.125Z,10.73
2023-02-07T13:17:43.437Z,11.10
2023-02-07T13:20:47.904Z,10.75
2023-02-07T13:23:49.574Z,10.43
2023-02-07T13:27:17.404Z,10.85
2023-02-07T13:30:20.634Z,10.55
2023-02-07T13:33:34.852Z,12.50
2023-02-07T13:36:42.712Z,12.15
2023-02-07T13:39:57.133Z,11.43
2023-02-07T13:46:42.681Z,13.55
2023-02-07T13:50:01.890Z,14.25
2023-02-07T13:53:15.414Z,14.35
2023-02-07T13:56:35.828Z,13.53
2023-02-07T13:59:38.931Z,13.45
2023-02-07T14:02:44.910Z,14.75
2023-02-07T14:05:46.622Z,14.88
2023-02-07T14:09:01.093Z,14.48
2023-02-07T14:15:41.864Z,14.68
2023-02-07T14:18:49.747Z,15.00
2023-02-07T14:22:13.758Z,15.02
2023-02-07T14:25:42.431Z,15.27
2023-02-07T14:28:46.124Z,14.43
2023-02-07T14:31:49.523Z,15.68
2023-02-07T14:35:06.505Z,14.93
2023-02-07T14:38:07.901Z,16.15
2023-02-07T14:41:12.719Z,16.15
2023-02-07T14:44:37.805Z,15.30
2023-02-07T14:47:39.329Z,15.18
2023-02-07T14:50:41.010Z,14.77
2023-02-07T14:53:45.188Z,15.10
2023-02-07T14:56:50.107Z,15.43
2023-02-07T15:00:02.171Z,15.18
2023-02-07T15:03:12.540Z,15.93
2023-02-07T15:06:30.681Z,15.85
2023-02-07T15:09:34.811Z,16.55
2023-02-07T15:12:36.396Z,15.65
2023-02-07T15:15:47.616Z,16.40
2023-02-07T15:18:49.256Z,14.80
2023-02-07T15:21:51.278Z,15.25
2023-02-07T15:24:57.517Z,15.52
2023-02-07T15:28:27.050Z,16.55
2023-02-07T15:31:30.450Z,15.52
2023-02-07T15:34:33.499Z,16.52
2023-02-07T15:37:34.991Z,16.73
2023-02-07T15:40:36.528Z,15.85
2023-02-07T15:43:38.086Z,15.00
2023-02-07T15:46:54.627Z,16.02
2023-02-07T15:50:04.286Z,16.13
2023-02-07T15:53:08.595Z,15.30
2023-02-07T15:56:15.178Z,16.42
2023-02-07T15:59:21.112Z,16.60
2023-02-07T16:02:32.979Z,16.13
2023-02-07T16:05:37.906Z,16.52
2023-02-07T16:08:42.371Z,16.40
2023-02-07T16:11:43.916Z,16.60
2023-02-07T16:14:45.387Z,16.83
2023-02-07T16:17:46.969Z,16.13
2023-02-07T16:20:48.617Z,15.98
2023-02-07T16:23:53.738Z,16.35
2023-02-07T16:26:56.078Z,16.80
2023-02-07T16:29:59.408Z,18.48
2023-02-07T16:33:05.638Z,18.17
2023-02-07T16:36:17.936Z,18.27
2023-02-07T16:39:20.327Z,18.98
2023-02-07T16:42:21.830Z,17.13
2023-02-07T16:45:26.426Z,17.23
2023-02-07T16:48:28.076Z,18.50
2023-02-07T16:51:29.564Z,24.70
2023-02-07T16:54:31.320Z,24.27
2023-02-07T16:57:32.803Z,17.92
2023-02-07T17:00:34.624Z,17.13
2023-02-07T17:03:36.070Z,17.33
2023-02-07T17:06:38.302Z,17.50
2023-02-07T17:09:39.852Z,17.98
2023-02-07T17:12:43.071Z,19.60
2023-02-07T17:15:44.553Z,22.87
2023-02-07T17:18:46.305Z,21.08
2023-02-07T17:21:49.423Z,22.58
2023-02-07T17:24:53.633Z,21.45
2023-02-07T17:27:55.778Z,23.75
2023-02-07T17:30:57.287Z,21.02
2023-02-07T17:33:59.402Z,21.58
2023-02-07T17:37:00.941Z,24.83
2023-02-07T17:40:02.559Z,21.70
2023-02-07T17:43:05.110Z,22.00
2023-02-07T17:46:21.832Z,26.45
2023-02-07T17:49:23.261Z,24.73
2023-02-07T17:52:24.777Z,25.75
2023-02-07T17:55:26.298Z,23.65
2023-02-07T17:58:29.498Z,24.75
2023-02-07T18:01:32.316Z,27.77
2023-02-07T18:04:33.794Z,25.75
2023-02-07T18:07:35.443Z,24.30
2023-02-07T18:10:37.232Z,24.88
2023-02-07T18:13:39.435Z,24.05
2023-02-07T18:16:41.533Z,23.73
2023-02-07T18:19:43.046Z,21.45
2023-02-07T18:22:44.573Z,21.75
2023-02-07T18:25:50.697Z,30.20
2023-02-07T18:28:52.390Z,21.60
2023-02-07T18:31:53.918Z,24.50
2023-02-07T18:34:55.457Z,22.25
2023-02-07T18:37:56.927Z,26.85
2023-02-07T18:40:58.421Z,32.40
2023-02-07T18:43:59.884Z,23.98
2023-02-07T18:47:01.484Z,20.35
2023-02-07T18:50:03.108Z,24.52
2023-02-07T18:53:05.408Z,23.00
2023-02-07T18:56:09.947Z,21.27
2023-02-07T18:59:11.442Z,19.75
2023-02-07T19:02:13.221Z,17.23
2023-02-07T19:05:14.913Z,13.73
2023-02-07T19:08:16.338Z,14.73
2023-02-07T19:11:19.340Z,17.33
2023-02-07T19:14:24.050Z,16.58
2023-02-07T19:17:25.622Z,15.00
2023-02-07T19:20:27.111Z,13.90
2023-02-07T19:23:28.657Z,15.50
2023-02-07T19:26:30.442Z,14.02
2023-02-07T19:29:33.461Z,15.93
2023-02-07T19:32:35.224Z,15.95
2023-02-07T19:35:38.122Z,14.35
2023-02-07T19:38:39.897Z,11.93
2023-02-07T19:41:41.381Z,13.75
2023-02-07T19:44:43.014Z,14.27
2023-02-07T19:47:44.462Z,14.20
2023-02-07T19:50:45.999Z,15.27
2023-02-07T19:53:49.941Z,14.43
2023-02-07T19:56:51.416Z,14.27
2023-02-07T19:59:52.930Z,13.50
2023-02-07T20:02:54.356Z,13.48
2023-02-07T20:06:00.089Z,13.35
2023-02-07T20:09:05.611Z,11.98
2023-02-07T20:12:07.460Z,13.05
2023-02-07T20:15:09.607Z,13.70
2023-02-07T20:18:13.225Z,14.00
2023-02-07T20:21:17.254Z,14.63
2023-02-07T20:27:21.044Z,13.50
2023-02-07T20:30:22.499Z,13.15
2023-02-07T20:33:24.262Z,15.65
2023-02-07T20:36:26.429Z,13.80
2023-02-07T20:39:30.593Z,14.30
2023-02-07T20:45:33.619Z,14.10
2023-02-07T20:48:35.274Z,14.73
2023-02-07T20:51:37.936Z,13.70
2023-02-07T20:54:39.384Z,13.45
2023-02-07T20:57:40.934Z,15.40
2023-02-07T21:00:42.510Z,16.25
2023-02-07T21:03:46.666Z,17.27
2023-02-07T21:06:48.602Z,16.85
2023-02-07T21:09:51.101Z,17.38
2023-02-07T21:12:52.601Z,17.90
2023-02-07T21:16:03.074Z,16.38
2023-02-07T21:19:05.136Z,17.98
2023-02-07T21:22:06.821Z,16.75
2023-02-07T21:25:08.373Z,17.30
2023-02-07T21:28:10.604Z,17.55
2023-02-07T21:31:19.928Z,17.15
2023-02-07T21:34:22.212Z,17.40
2023-02-07T21:37:23.849Z,17.63
2023-02-07T21:40:26.327Z,18.60
2023-02-07T21:43:27.892Z,18.00
2023-02-07T21:46:34.956Z,18.58
2023-02-07T21:49:37.772Z,18.30
2023-02-07T21:52:39.798Z,19.67
2023-02-07T21:55:41.312Z,16.95
2023-02-07T21:58:43.398Z,21.45
2023-02-07T22:01:46.377Z,20.98
2023-02-07T22:04:47.894Z,21.00
2023-02-07T22:07:49.358Z,22.05
2023-02-07T22:10:50.889Z,19.15
2023-02-07T22:13:53.671Z,20.55
2023-02-07T22:16:57.372Z,20.80
2023-02-07T22:19:58.838Z,21.02
2023-02-07T22:23:00.332Z,20.02
2023-02-07T22:26:02.461Z,19.27
2023-02-07T22:29:06.234Z,19.05
2023-02-07T22:32:07.740Z,20.25
2023-02-07T22:35:09.194Z,19.00
2023-02-07T22:38:13.159Z,17.33
2023-02-07T22:41:15.729Z,18.45
2023-02-07T22:44:17.220Z,18.30
2023-02-07T22:47:18.718Z,17.42
2023-02-07T22:50:20.573Z,16.48
2023-02-07T22:53:22.140Z,16.67
2023-02-07T22:56:24.140Z,15.90
2023-02-07T22:59:25.567Z,17.23
2023-02-07T23:02:28.240Z,15.90
2023-02-07T23:05:29.781Z,15.85
2023-02-07T23:08:31.465Z,14.55
2023-02-07T23:11:33.567Z,15.00
2023-02-07T23:14:35.072Z,14.45
2023-02-07T23:17:36.543Z,13.82
2023-02-07T23:20:38.139Z,13.07
2023-02-07T23:23:40.287Z,13.35
2023-02-07T23:26:41.870Z,13.40
2023-02-07T23:29:43.358Z,13.70
2023-02-07T23:32:44.818Z,13.52
2023-02-07T23:35:46.311Z,13.75
2023-02-07T23:38:48.782Z,13.65
2023-02-07T23:41:50.308Z,12.98
2023-02-07T23:44:51.786Z,13.52
2023-02-07T23:47:53.802Z,13.57
2023-02-07T23:50:57.578Z,13.23
2023-02-07T23:53:59.052Z,13.50
2023-02-07T23:57:00.696Z,12.95
